Time;durP1;ratioP1;P1;durP2;ratioP2;P2;SDS_P1;SDS_P2;PMS_P1;PMS_P2;Temp;Humidity;BMP_temperature;BMP_pressure;BME280_temperature;BME280_humidity;BME280_pressure;Samples;Min_cycle;Max_cycle;Signal;HPM_P1;HPM_P2
2021/11/02 00:01:44;;;;;;;1.02;0.20;;;6.90;94.80;;;;;;4943281;28;20104;-77
2021/11/02 00:04:12;;;;;;;0.73;0.30;;;6.90;94.80;;;;;;4933877;28;20063;-77
2021/11/02 00:06:39;;;;;;;1.10;0.63;;;6.90;94.90;;;;;;4971884;28;20130;-77
2021/11/02 00:09:11;;;;;;;0.80;0.30;;;6.90;94.90;;;;;;4955632;28;20060;-77
2021/11/02 00:11:40;;;;;;;0.73;0.30;;;6.90;94.90;;;;;;4943391;28;20054;-77
2021/11/02 00:14:09;;;;;;;0.70;0.40;;;6.90;94.90;;;;;;4949772;28;20202;-77
2021/11/02 00:16:37;;;;;;;0.70;0.30;;;6.90;94.90;;;;;;4949435;28;20036;-76
2021/11/02 00:19:06;;;;;;;0.60;0.32;;;6.90;94.90;;;;;;4965650;28;20174;-77
2021/11/02 00:21:38;;;;;;;1.65;0.57;;;6.90;94.90;;;;;;4936694;28;20114;-76
2021/11/02 00:24:12;;;;;;;0.70;0.30;;;6.80;94.90;;;;;;4950502;28;20606;-76
2021/11/02 00:26:39;;;;;;;1.50;0.40;;;6.80;94.90;;;;;;4945442;28;20928;-76
2021/11/02 00:29:07;;;;;;;1.75;0.60;;;6.80;94.90;;;;;;4941151;28;20039;-76
2021/11/02 00:31:35;;;;;;;0.80;0.35;;;6.80;94.90;;;;;;4965032;28;20043;-76
2021/11/02 00:34:03;;;;;;;0.77;0.30;;;6.70;94.80;;;;;;4943437;28;20074;-76
2021/11/02 00:36:30;;;;;;;1.00;0.30;;;6.70;94.90;;;;;;4955646;28;20042;-76
2021/11/02 00:38:57;;;;;;;0.82;0.40;;;6.70;94.90;;;;;;4952121;28;20058;-76
2021/11/02 00:41:24;;;;;;;0.93;0.40;;;6.70;94.90;;;;;;4949842;28;20050;-76
2021/11/02 00:43:52;;;;;;;1.60;0.50;;;6.70;94.90;;;;;;4957055;28;20078;-76
2021/11/02 00:46:26;;;;;;;1.85;0.50;;;6.70;94.90;;;;;;4937238;28;20054;-76
2021/11/02 00:48:53;;;;;;;1.52;0.45;;;6.70;94.90;;;;;;4953706;28;20399;-76
2021/11/02 00:51:20;;;;;;;0.45;0.20;;;6.70;94.90;;;;;;4932338;28;20071;-76
2021/11/02 00:53:47;;;;;;;1.52;0.40;;;6.60;94.90;;;;;;4947604;28;20046;-76
2021/11/02 00:56:15;;;;;;;3.13;0.50;;;6.60;94.90;;;;;;4950299;28;20051;-76
2021/11/02 00:58:42;;;;;;;1.13;0.40;;;6.60;94.90;;;;;;4946228;28;20043;-76
2021/11/02 01:01:10;;;;;;;1.05;0.35;;;6.60;94.90;;;;;;4946741;28;20043;-76
2021/11/02 01:03:38;;;;;;;1.20;0.50;;;6.60;94.90;;;;;;4935203;28;20055;-76
2021/11/02 01:06:06;;;;;;;1.30;0.30;;;6.50;94.90;;;;;;4957621;28;20044;-76
2021/11/02 01:08:33;;;;;;;0.70;0.30;;;6.50;94.90;;;;;;4941731;28;20044;-76
2021/11/02 01:11:00;;;;;;;0.98;0.47;;;6.50;94.90;;;;;;4962755;28;20102;-76
2021/11/02 01:13:28;;;;;;;0.55;0.30;;;6.50;94.90;;;;;;4935706;28;20043;-76
2021/11/02 01:15:57;;;;;;;0.73;0.40;;;6.40;94.90;;;;;;4948449;28;20123;-76
2021/11/02 01:18:24;;;;;;;0.77;0.40;;;6.40;95.00;;;;;;4935793;28;20435;-76
2021/11/02 01:20:53;;;;;;;1.40;0.50;;;6.40;95.00;;;;;;4946540;28;20125;-76
2021/11/02 01:23:20;;;;;;;1.17;0.50;;;6.40;95.00;;;;;;4948090;28;20553;-76
2021/11/02 01:25:47;;;;;;;1.05;0.35;;;6.40;95.00;;;;;;4966184;28;20155;-76
2021/11/02 01:28:15;;;;;;;2.60;0.50;;;6.40;95.00;;;;;;4970541;28;20107;-76
2021/11/02 01:30:44;;;;;;;1.83;0.68;;;6.40;95.00;;;;;;4966175;28;20047;-76
2021/11/02 01:33:15;;;;;;;1.30;0.50;;;6.30;94.90;;;;;;4958325;28;20066;-76
2021/11/02 01:35:47;;;;;;;1.15;0.35;;;6.40;95.00;;;;;;4954393;28;20109;-76
2021/11/02 01:38:16;;;;;;;2.20;0.68;;;6.30;95.00;;;;;;4929746;28;20057;-76
2021/11/02 01:40:44;;;;;;;1.55;0.60;;;6.30;95.00;;;;;;4934229;28;20060;-76
2021/11/02 01:43:14;;;;;;;1.75;0.47;;;6.30;95.00;;;;;;4948488;28;20058;-76
2021/11/02 01:45:43;;;;;;;1.27;0.50;;;6.30;95.00;;;;;;4951711;28;20134;-76
2021/11/02 01:48:17;;;;;;;1.90;0.60;;;6.30;95.00;;;;;;4940897;28;20097;-76
2021/11/02 01:50:45;;;;;;;1.77;0.70;;;6.30;95.00;;;;;;4958704;28;20075;-76
2021/11/02 01:53:13;;;;;;;1.60;0.50;;;6.20;95.00;;;;;;4954190;28;20073;-76
2021/11/02 01:55:41;;;;;;;1.00;0.40;;;6.20;95.00;;;;;;4932380;28;20063;-76
2021/11/02 01:58:14;;;;;;;2.10;0.60;;;6.20;95.00;;;;;;4940965;28;20058;-76
2021/11/02 02:00:54;;;;;;;1.05;0.40;;;6.20;95.00;;;;;;4962234;28;20051;-76
2021/11/02 02:03:47;;;;;;;0.93;0.38;;;6.20;95.00;;;;;;4963896;28;20492;-76
2021/11/02 02:06:22;;;;;;;;;;;6.20;95.00;;;;;;4974110;28;20078;-76
2021/11/02 02:09:06;;;;;;;3.60;0.70;;;6.10;95.00;;;;;;4965343;28;19926;-76
2021/11/02 02:12:02;;;;;;;1.23;0.50;;;6.10;95.10;;;;;;4945145;28;20069;-76
2021/11/02 02:15:09;;;;;;;1.23;0.40;;;6.10;95.10;;;;;;4966109;28;20051;-76
2021/11/02 02:17:44;;;;;;;0.80;0.40;;;6.10;95.00;;;;;;4966571;28;20043;-76
2021/11/02 02:20:27;;;;;;;1.15;0.45;;;6.10;95.30;;;;;;4976104;28;20055;-76
2021/11/02 02:23:14;;;;;;;1.65;0.40;;;6.10;95.00;;;;;;4962045;28;20122;-76
2021/11/02 02:25:58;;;;;;;1.85;0.73;;;6.00;95.00;;;;;;4969250;28;20043;-76
2021/11/02 02:28:35;;;;;;;1.10;0.30;;;6.00;95.00;;;;;;4966878;28;20051;-76
2021/11/02 02:31:08;;;;;;;1.42;0.50;;;6.00;95.10;;;;;;4963410;28;20046;-76
2021/11/02 02:33:49;;;;;;;3.30;0.60;;;6.00;95.10;;;;;;4952747;28;20422;-76
2021/11/02 02:36:29;;;;;;;1.40;0.40;;;6.00;95.00;;;;;;4964855;28;20126;-76
2021/11/02 02:39:10;;;;;;;1.00;0.47;;;6.00;95.10;;;;;;4940421;28;20446;-76
2021/11/02 02:41:42;;;;;;;0.85;0.40;;;5.90;95.10;;;;;;4923985;28;20057;-76
2021/11/02 02:44:14;;;;;;;1.73;0.50;;;5.90;95.10;;;;;;4962402;28;20046;-76
2021/11/02 02:46:41;;;;;;;1.50;0.55;;;5.90;95.00;;;;;;4925157;28;20133;-76
2021/11/02 02:49:11;;;;;;;1.95;0.40;;;5.90;95.10;;;;;;4947918;28;20043;-76
2021/11/02 02:51:42;;;;;;;1.15;0.40;;;5.90;95.10;;;;;;4955428;28;20502;-76
2021/11/02 02:54:13;;;;;;;2.03;0.90;;;5.90;95.10;;;;;;4952476;28;20130;-76
2021/11/02 02:56:46;;;;;;;1.13;0.47;;;5.90;95.00;;;;;;4949962;28;20137;-76
2021/11/02 02:59:15;;;;;;;1.50;0.63;;;5.90;95.10;;;;;;4963108;28;20041;-76
2021/11/02 03:01:44;;;;;;;1.63;0.70;;;5.90;95.10;;;;;;4955256;28;20572;-76
2021/11/02 03:04:15;;;;;;;1.27;0.60;;;5.90;95.10;;;;;;4964779;28;20042;-76
2021/11/02 03:06:46;;;;;;;1.80;0.50;;;5.80;95.10;;;;;;4967338;28;20470;-76
2021/11/02 03:09:17;;;;;;;1.73;0.60;;;5.80;95.10;;;;;;4967689;28;22056;-76
2021/11/02 03:11:45;;;;;;;1.55;0.50;;;5.80;95.10;;;;;;4949404;28;20078;-76
2021/11/02 03:14:18;;;;;;;2.10;0.80;;;5.80;95.10;;;;;;4943230;28;20189;-76
2021/11/02 03:17:00;;;;;;;0.95;0.50;;;5.80;95.10;;;;;;4967442;28;20041;-76
2021/11/02 03:48:57;;;;;;;0.82;0.40;;;5.70;95.10;;;;;;4963140;28;20140;-76
2021/11/02 05:58:47;;;;;;;1.15;0.43;;;5.30;95.10;;;;;;4955440;28;20435;-76
2021/11/02 06:06:45;;;;;;;1.35;0.50;;;5.30;95.20;;;;;;4967368;28;20066;-76
2021/11/02 06:09:28;;;;;;;0.93;0.30;;;5.30;95.10;;;;;;4966470;28;20547;-75
2021/11/02 06:29:04;;;;;;;0.50;0.30;;;5.20;95.20;;;;;;4950631;28;20491;-76
2021/11/02 06:31:38;;;;;;;0.80;0.40;;;5.20;95.20;;;;;;4963282;28;20127;-76
2021/11/02 06:34:32;;;;;;;0.95;0.30;;;5.20;95.20;;;;;;4960409;28;20154;-76
2021/11/02 06:45:27;;;;;;;0.70;0.40;;;5.20;95.20;;;;;;4970882;28;20154;-75
2021/11/02 06:51:07;;;;;;;0.60;0.30;;;5.30;95.20;;;;;;4962733;28;20077;-76
2021/11/02 07:19:42;;;;;;;1.30;0.40;;;5.60;95.10;;;;;;4967343;28;20042;-78
2021/11/02 08:47:45;;;;;;;2.13;0.80;;;8.10;94.40;;;;;;4944851;28;20101;-77
2021/11/02 08:50:18;;;;;;;1.98;0.90;;;8.10;94.40;;;;;;4952040;28;20124;-77
2021/11/02 08:52:53;;;;;;;1.40;0.70;;;8.20;94.30;;;;;;4947615;28;20038;-76
2021/11/02 08:55:20;;;;;;;2.40;0.90;;;8.20;94.30;;;;;;4961671;28;20047;-76
2021/11/02 08:57:48;;;;;;;2.72;0.80;;;8.30;94.30;;;;;;4960852;28;20101;-77
2021/11/02 09:00:18;;;;;;;1.50;0.70;;;8.30;94.30;;;;;;4966865;28;20043;-76
2021/11/02 09:02:51;;;;;;;2.53;1.15;;;8.40;94.20;;;;;;4943050;28;20050;-76
2021/11/02 09:05:30;;;;;;;2.22;1.17;;;8.40;94.20;;;;;;4963539;28;20062;-77
2021/11/02 09:07:59;;;;;;;3.17;1.10;;;8.50;94.20;;;;;;4957316;28;20071;-76
2021/11/02 09:10:26;;;;;;;2.35;1.08;;;8.50;94.20;;;;;;4966570;28;20042;-77
2021/11/02 09:12:58;;;;;;;1.90;1.02;;;8.50;94.20;;;;;;4957302;28;20047;-76
2021/11/02 09:15:34;;;;;;;3.70;1.38;;;8.60;94.20;;;;;;4968796;28;20490;-77
2021/11/02 09:18:09;;;;;;;2.55;0.98;;;8.60;94.10;;;;;;4978025;28;20047;-77
2021/11/02 09:20:37;;;;;;;1.80;0.90;;;8.60;94.10;;;;;;4979983;28;20051;-76
2021/11/02 09:23:06;;;;;;;1.27;0.50;;;8.60;94.10;;;;;;4957764;28;20037;-76
2021/11/02 09:25:34;;;;;;;1.90;0.52;;;8.70;94.20;;;;;;4936301;28;20043;-74
2021/11/02 09:28:02;;;;;;;2.20;0.73;;;8.70;94.20;;;;;;4973827;28;20055;-76
2021/11/02 09:30:30;;;;;;;1.83;0.80;;;8.80;94.40;;;;;;4966869;28;20047;-76
2021/11/02 09:32:58;;;;;;;2.05;1.15;;;8.80;94.20;;;;;;4962223;28;20051;-76
2021/11/02 09:35:27;;;;;;;2.17;0.93;;;8.90;94.10;;;;;;4985669;28;20047;-77
2021/11/02 09:38:15;;;;;;;1.50;0.70;;;8.90;94.10;;;;;;4968413;28;20476;-76
2021/11/02 09:41:03;;;;;;;1.27;0.60;;;8.90;94.10;;;;;;4968624;28;20046;-76
2021/11/02 09:44:02;;;;;;;1.27;0.50;;;9.00;94.10;;;;;;4954273;28;20562;-76
2021/11/02 09:47:07;;;;;;;1.65;0.90;;;9.00;94.10;;;;;;4979338;28;20047;-76
2021/11/02 09:49:52;;;;;;;2.40;0.90;;;9.10;94.00;;;;;;4962328;28;20055;-76
2021/11/02 09:52:52;;;;;;;1.80;0.70;;;9.10;94.00;;;;;;4963338;28;20046;-76
2021/11/02 09:55:54;;;;;;;1.73;0.90;;;9.20;94.00;;;;;;4957672;28;20043;-76
2021/11/02 09:59:00;;;;;;;1.58;0.80;;;9.20;93.90;;;;;;4964145;28;20074;-76
2021/11/02 10:01:46;;;;;;;1.67;0.80;;;9.30;93.90;;;;;;4957416;28;20079;-76
2021/11/02 10:04:34;;;;;;;2.78;1.25;;;9.20;93.90;;;;;;4972943;28;20038;-77
2021/11/02 10:07:32;;;;;;;3.20;1.10;;;9.30;93.80;;;;;;4958345;28;20056;-77
2021/11/02 10:10:26;;;;;;;1.92;0.85;;;9.20;93.90;;;;;;4963724;28;20069;-77
2021/11/02 10:13:30;;;;;;;2.45;1.23;;;9.20;93.90;;;;;;4954098;28;20416;-77
2021/11/02 10:16:02;;;;;;;2.85;1.25;;;9.10;93.90;;;;;;4968772;28;20443;-78
2021/11/02 10:18:30;;;;;;;1.95;0.88;;;9.10;94.00;;;;;;4957639;28;20142;-78
2021/11/02 10:21:46;;;;;;;2.00;0.95;;;9.10;94.00;;;;;;4957494;28;20094;-78
2021/11/02 10:24:44;;;;;;;2.95;0.80;;;9.20;94.00;;;;;;4933851;28;20043;-78
2021/11/02 10:27:30;;;;;;;2.15;1.08;;;9.30;94.00;;;;;;4953846;28;20067;-78
2021/11/02 10:30:03;;;;;;;2.47;0.88;;;9.40;94.00;;;;;;4952239;29;20043;-77
2021/11/02 10:32:33;;;;;;;2.25;0.90;;;9.40;93.90;;;;;;4972330;28;20384;-78
2021/11/02 10:35:00;;;;;;;2.47;1.20;;;9.50;93.90;;;;;;4938075;29;20047;-78
2021/11/02 10:38:06;;;;;;;2.75;1.05;;;9.60;93.90;;;;;;4956753;28;20039;-78
2021/11/02 10:40:45;;;;;;;2.30;1.00;;;9.60;93.90;;;;;;4943455;28;20368;-78
2021/11/02 10:43:33;;;;;;;2.88;1.17;;;9.70;93.90;;;;;;4973075;28;20050;-78
2021/11/02 10:46:13;;;;;;;1.83;0.93;;;9.80;93.80;;;;;;4972976;28;20872;-78
2021/11/02 10:48:49;;;;;;;1.83;0.93;;;9.80;93.80;;;;;;4973872;28;20042;-78
2021/11/02 10:51:39;;;;;;;2.97;1.30;;;9.80;93.80;;;;;;4956900;28;20137;-77
2021/11/02 10:54:29;;;;;;;3.28;1.10;;;9.80;93.80;;;;;;4937857;28;20043;-78
2021/11/02 10:57:19;;;;;;;4.10;1.75;;;9.80;93.80;;;;;;4965528;28;20054;-77
2021/11/02 10:59:48;;;;;;;2.70;1.48;;;9.80;93.80;;;;;;4939046;29;20043;-78
2021/11/02 11:02:29;;;;;;;3.03;1.30;;;9.80;93.80;;;;;;4957200;28;20488;-77
2021/11/02 11:05:02;;;;;;;3.58;2.20;;;9.90;93.80;;;;;;4971582;28;20093;-79
2021/11/02 11:07:36;;;;;;;3.00;1.63;;;9.90;93.80;;;;;;4964213;28;20414;-79
2021/11/02 11:10:05;;;;;;;2.65;1.35;;;9.90;93.80;;;;;;4928714;29;20571;-77
2021/11/02 11:12:39;;;;;;;3.72;2.25;;;10.00;93.80;;;;;;4942030;28;20518;-76
2021/11/02 11:15:07;;;;;;;3.88;2.13;;;10.00;93.80;;;;;;4940553;28;20393;-76
2021/11/02 11:17:35;;;;;;;4.20;1.50;;;10.10;93.80;;;;;;4958842;28;20256;-76
2021/11/02 11:20:09;;;;;;;6.00;2.88;;;10.20;93.70;;;;;;4954855;28;20098;-77
2021/11/02 11:22:43;;;;;;;3.40;2.05;;;10.20;93.70;;;;;;4958852;28;20466;-77
2021/11/02 11:25:19;;;;;;;3.92;2.13;;;10.20;93.70;;;;;;4958508;28;20102;-76
2021/11/02 11:27:55;;;;;;;2.90;1.27;;;10.30;93.70;;;;;;4954446;28;20414;-76
2021/11/02 11:30:30;;;;;;;3.60;1.70;;;10.30;93.70;;;;;;4943230;28;20101;-75
2021/11/02 11:32:58;;;;;;;2.90;1.30;;;10.30;93.60;;;;;;4974613;28;20117;-76
2021/11/02 11:35:25;;;;;;;2.05;1.08;;;10.30;93.60;;;;;;4933865;28;20043;-76
2021/11/02 11:37:53;;;;;;;2.15;1.30;;;10.30;93.60;;;;;;4953138;28;20051;-75
2021/11/02 11:40:23;;;;;;;3.58;1.98;;;10.40;93.70;;;;;;4973916;28;20043;-76
2021/11/02 11:42:53;;;;;;;3.03;1.33;;;10.40;93.60;;;;;;4976135;28;20050;-76
2021/11/02 11:45:29;;;;;;;2.28;1.10;;;10.40;93.60;;;;;;4958631;28;20047;-76
2021/11/02 11:48:30;;;;;;;3.42;1.35;;;10.50;93.60;;;;;;4974269;28;20050;-75
2021/11/02 11:51:00;;;;;;;2.65;1.48;;;10.50;93.50;;;;;;4961572;28;20070;-75
2021/11/02 11:53:30;;;;;;;2.75;1.38;;;10.60;93.50;;;;;;4959845;28;20550;-75
2021/11/02 11:56:11;;;;;;;2.47;1.33;;;10.60;93.50;;;;;;4964890;28;20050;-75
2021/11/02 11:58:50;;;;;;;2.95;1.10;;;10.60;93.50;;;;;;4972037;28;20051;-75
2021/11/02 12:01:42;;;;;;;2.13;1.10;;;10.60;93.50;;;;;;4956172;28;20515;-76
2021/11/02 12:04:22;;;;;;;3.47;2.03;;;10.60;93.50;;;;;;4962021;28;20074;-74
2021/11/02 12:07:05;;;;;;;3.20;1.70;;;10.50;93.50;;;;;;4969417;28;20047;-74
2021/11/02 12:09:46;;;;;;;4.00;1.42;;;10.60;93.50;;;;;;4962182;28;20109;-73
2021/11/02 12:12:14;;;;;;;2.90;1.42;;;10.60;93.50;;;;;;4968698;28;20109;-74
2021/11/02 12:14:51;;;;;;;2.97;1.33;;;10.60;93.60;;;;;;4953327;28;20039;-73
2021/11/02 12:17:24;;;;;;;2.60;1.10;;;10.70;93.50;;;;;;4968957;28;20050;-75
2021/11/02 12:19:59;;;;;;;2.28;1.25;;;10.80;93.50;;;;;;4969011;28;20109;-75
2021/11/02 12:22:34;;;;;;;2.25;1.05;;;10.90;93.40;;;;;;4955029;28;20047;-77
2021/11/02 12:25:09;;;;;;;1.88;0.93;;;11.00;93.40;;;;;;4956950;28;20051;-78
2021/11/02 12:27:39;;;;;;;3.70;1.10;;;11.00;93.40;;;;;;4964020;28;20098;-77
2021/11/02 12:30:13;;;;;;;3.03;1.17;;;11.00;93.30;;;;;;4965866;28;20674;-77
2021/11/02 12:32:46;;;;;;;2.00;1.10;;;11.00;93.30;;;;;;4969725;28;20137;-77
2021/11/02 12:35:21;;;;;;;1.75;0.90;;;11.00;93.40;;;;;;4956043;28;20055;-77
2021/11/02 12:38:01;;;;;;;1.73;0.95;;;10.90;93.40;;;;;;4969409;28;20093;-78
2021/11/02 12:40:34;;;;;;;2.60;0.93;;;11.00;93.40;;;;;;4969314;28;20081;-77
2021/11/02 12:43:30;;;;;;;1.92;0.73;;;10.90;93.30;;;;;;4971990;28;20042;-77
2021/11/02 12:46:02;;;;;;;1.30;0.68;;;10.90;93.30;;;;;;4969995;28;20041;-77
2021/11/02 12:48:32;;;;;;;2.58;0.80;;;10.90;93.70;;;;;;4964555;28;20137;-78
2021/11/02 12:51:19;;;;;;;3.20;1.35;;;10.90;93.40;;;;;;4973100;28;20043;-78
2021/11/02 12:53:52;;;;;;;2.58;1.10;;;10.80;93.40;;;;;;4955641;28;20078;-78
2021/11/02 12:56:21;;;;;;;2.33;1.10;;;10.80;93.40;;;;;;4943440;28;20584;-77
2021/11/02 12:58:53;;;;;;;3.05;1.33;;;10.70;93.40;;;;;;4973001;28;20443;-77
2021/11/02 13:01:36;;;;;;;1.80;0.98;;;10.70;93.40;;;;;;4956302;28;20130;-78
2021/11/02 13:04:11;;;;;;;2.28;0.80;;;10.80;93.40;;;;;;4971754;28;20039;-78
2021/11/02 13:06:50;;;;;;;2.33;1.10;;;10.80;93.40;;;;;;4973589;28;20546;-77
2021/11/02 13:09:22;;;;;;;1.70;0.70;;;10.90;93.40;;;;;;4970577;28;20507;-78
2021/11/02 13:12:03;;;;;;;1.55;0.85;;;10.90;93.30;;;;;;4940898;29;20051;-78
2021/11/02 13:14:42;;;;;;;3.25;0.93;;;11.00;93.30;;;;;;4967701;28;20071;-77
2021/11/02 13:17:12;;;;;;;1.67;0.82;;;11.00;93.30;;;;;;4956205;28;20046;-78
2021/11/02 13:19:48;;;;;;;2.28;0.98;;;11.00;93.30;;;;;;4971381;28;20049;-78
2021/11/02 13:22:26;;;;;;;1.73;0.82;;;11.00;93.30;;;;;;4955704;28;20047;-78
2021/11/02 13:25:08;;;;;;;2.60;1.00;;;11.00;93.30;;;;;;4971808;28;20042;-77
2021/11/02 13:27:44;;;;;;;2.10;1.08;;;11.00;93.30;;;;;;4961727;28;20039;-78
2021/11/02 13:30:39;;;;;;;2.00;0.90;;;11.00;93.30;;;;;;4967742;28;20039;-77
2021/11/02 13:33:20;;;;;;;2.60;1.08;;;11.00;93.30;;;;;;4973542;28;20042;-77
2021/11/02 13:36:00;;;;;;;1.85;1.00;;;11.10;93.30;;;;;;4972045;28;20054;-77
2021/11/02 13:38:39;;;;;;;2.63;1.10;;;11.10;93.20;;;;;;4969674;28;20046;-76
2021/11/02 13:41:17;;;;;;;2.88;1.45;;;11.20;93.10;;;;;;4974063;28;20038;-76
2021/11/02 13:43:48;;;;;;;2.25;1.20;;;11.30;93.00;;;;;;4963632;28;20035;-78
2021/11/02 13:46:18;;;;;;;2.22;1.17;;;11.30;93.30;;;;;;4974031;28;20116;-77
2021/11/02 13:48:46;;;;;;;3.40;1.13;;;11.20;93.00;;;;;;4965915;28;20051;-77
2021/11/02 13:51:16;;;;;;;2.72;1.40;;;11.20;93.10;;;;;;4955302;28;20099;-76
2021/11/02 13:53:44;;;;;;;1.58;0.70;;;11.20;93.10;;;;;;4963906;28;20463;-76
2021/11/02 13:56:13;;;;;;;2.42;1.42;;;11.10;93.20;;;;;;4961721;28;20055;-76
2021/11/02 13:58:41;;;;;;;2.15;1.02;;;11.10;93.20;;;;;;4961782;28;20063;-76
2021/11/02 14:01:20;;;;;;;2.17;1.10;;;11.00;93.10;;;;;;4956210;28;20039;-76
2021/11/02 14:04:26;;;;;;;2.72;1.02;;;11.00;93.20;;;;;;4971798;28;20070;-76
2021/11/02 14:07:00;;;;;;;2.88;1.27;;;11.00;93.20;;;;;;4964223;28;20576;-77
2021/11/02 14:09:35;;;;;;;2.22;1.20;;;10.90;93.30;;;;;;4966542;28;20062;-77
2021/11/02 14:12:25;;;;;;;1.98;1.25;;;10.80;93.20;;;;;;4971203;28;20039;-76
2021/11/02 14:15:10;;;;;;;2.25;1.20;;;10.80;93.20;;;;;;4972104;28;20062;-76
2021/11/02 14:17:39;;;;;;;1.80;0.77;;;10.80;93.20;;;;;;4972202;28;20052;-76
2021/11/02 14:20:10;;;;;;;1.60;0.90;;;10.80;93.30;;;;;;4973589;28;20042;-76
2021/11/02 14:22:49;;;;;;;2.25;1.08;;;10.70;93.30;;;;;;4957059;28;20051;-76
2021/11/02 14:25:17;;;;;;;2.85;1.00;;;10.70;93.30;;;;;;4974197;28;20050;-76
2021/11/02 14:27:47;;;;;;;1.98;1.00;;;10.70;93.50;;;;;;4936602;28;20098;-77
2021/11/02 14:30:29;;;;;;;3.05;1.00;;;10.70;93.30;;;;;;4974421;28;20050;-77
2021/11/02 14:33:18;;;;;;;2.42;1.08;;;10.60;93.20;;;;;;4967301;28;20046;-77
2021/11/02 14:35:48;;;;;;;1.83;0.80;;;10.60;93.30;;;;;;4960176;28;20055;-76
2021/11/02 14:38:26;;;;;;;3.35;1.33;;;10.60;93.30;;;;;;4969443;28;20518;-76
2021/11/02 14:41:32;;;;;;;1.95;1.00;;;10.60;93.30;;;;;;4963891;28;20039;-76
2021/11/02 14:44:15;;;;;;;1.58;0.82;;;10.60;93.40;;;;;;4971730;28;20031;-75
2021/11/02 14:46:50;;;;;;;1.70;0.90;;;10.60;93.30;;;;;;4967760;28;20491;-76
2021/11/02 14:49:30;;;;;;;1.48;0.52;;;10.60;93.40;;;;;;4964619;28;20121;-76
2021/11/02 14:52:05;;;;;;;1.40;0.60;;;10.60;93.40;;;;;;4963836;28;20044;-76
2021/11/02 14:54:44;;;;;;;2.42;0.88;;;10.60;93.60;;;;;;4964325;28;20051;-77
2021/11/02 14:57:18;;;;;;;2.47;1.30;;;10.60;93.40;;;;;;4963923;28;20442;-77
2021/11/02 14:59:52;;;;;;;2.10;0.90;;;10.60;93.30;;;;;;4969134;28;20043;-77
2021/11/02 15:02:34;;;;;;;1.58;0.90;;;10.40;93.10;;;;;;4966008;28;20035;-76
2021/11/02 15:05:07;;;;;;;2.97;0.90;;;10.30;93.10;;;;;;4943297;28;20038;-78
2021/11/02 15:07:36;;;;;;;1.75;0.88;;;10.10;93.10;;;;;;4966579;28;20049;-78
2021/11/02 15:10:09;;;;;;;1.45;0.73;;;9.90;93.20;;;;;;4962753;28;20419;-78
2021/11/02 15:12:37;;;;;;;1.75;0.80;;;9.70;93.40;;;;;;4964830;28;20051;-79
2021/11/02 15:15:06;;;;;;;1.50;0.70;;;9.60;93.50;;;;;;4957792;28;20425;-77
2021/11/02 15:17:34;;;;;;;1.52;0.50;;;9.50;93.60;;;;;;4963835;28;20034;-79
2021/11/02 15:20:23;;;;;;;1.13;0.50;;;9.50;93.70;;;;;;4950828;28;20133;-78
2021/11/02 15:22:50;;;;;;;1.58;0.50;;;9.40;93.70;;;;;;4962042;28;20571;-76
2021/11/02 15:25:17;;;;;;;0.80;0.30;;;9.40;93.70;;;;;;4960465;28;20071;-76
2021/11/02 15:27:44;;;;;;;0.55;0.38;;;9.40;93.70;;;;;;4960165;28;20448;-77
2021/11/02 15:30:14;;;;;;;1.33;0.40;;;9.40;93.50;;;;;;4949856;28;20038;-76
2021/11/02 15:32:46;;;;;;;2.08;0.40;;;9.40;93.80;;;;;;4960555;28;20106;-75
2021/11/02 15:35:21;;;;;;;1.00;0.40;;;9.40;93.80;;;;;;4958815;28;20044;-77
2021/11/02 15:38:01;;;;;;;0.77;0.30;;;9.40;93.80;;;;;;4966126;28;20043;-77
2021/11/02 15:40:36;;;;;;;0.82;0.40;;;9.40;93.80;;;;;;4965105;28;20061;-78
2021/11/02 15:43:07;;;;;;;0.85;0.32;;;9.40;93.80;;;;;;4955173;28;21450;-77
2021/11/02 15:45:40;;;;;;;0.77;0.20;;;9.40;93.80;;;;;;4942214;28;20047;-77
2021/11/02 15:48:30;;;;;;;1.10;0.30;;;9.40;93.90;;;;;;4965424;28;20051;-77
2021/11/02 15:50:57;;;;;;;0.50;0.30;;;9.40;93.90;;;;;;4961987;28;20042;-77
2021/11/02 15:53:28;;;;;;;0.65;0.35;;;9.40;94.20;;;;;;4959787;28;20047;-77
2021/11/02 15:56:00;;;;;;;0.80;0.35;;;9.40;93.90;;;;;;4935190;28;20126;-77
2021/11/02 15:58:28;;;;;;;0.38;0.20;;;9.50;94.20;;;;;;4962697;28;20491;-76
2021/11/02 16:00:55;;;;;;;1.33;0.40;;;9.50;94.00;;;;;;4967417;28;20057;-77
2021/11/02 16:03:31;;;;;;;1.15;0.60;;;9.50;94.00;;;;;;4935763;28;20090;-78
2021/11/02 16:05:58;;;;;;;0.85;0.40;;;9.50;94.00;;;;;;4945040;28;20093;-77
2021/11/02 16:08:25;;;;;;;1.15;0.57;;;9.50;94.00;;;;;;4970520;28;20059;-77
2021/11/02 16:11:03;;;;;;;1.60;0.57;;;9.50;94.00;;;;;;4938006;28;20047;-78
2021/11/02 16:13:30;;;;;;;1.95;0.73;;;9.50;94.00;;;;;;4946680;28;20086;-76
2021/11/02 16:16:01;;;;;;;1.63;0.65;;;9.50;94.00;;;;;;4950619;28;20039;-77
2021/11/02 16:18:35;;;;;;;1.35;0.80;;;9.50;94.00;;;;;;4937931;28;20047;-77
2021/11/02 16:21:04;;;;;;;;;;;9.50;94.00;;;;;;4966927;28;20558;-78
2021/11/02 16:23:40;;;;;;;3.67;1.88;;;9.50;94.00;;;;;;4967171;28;19968;-77
2021/11/02 16:26:28;;;;;;;2.83;1.60;;;9.50;94.00;;;;;;4957925;28;20055;-76
2021/11/02 16:29:09;;;;;;;2.80;1.50;;;9.50;94.00;;;;;;4940249;28;20115;-76
2021/11/02 16:31:37;;;;;;;3.80;2.22;;;9.50;94.00;;;;;;4963768;28;20046;-76
2021/11/02 16:34:20;;;;;;;3.72;2.00;;;9.50;94.00;;;;;;4964481;28;20030;-76
2021/11/02 16:36:48;;;;;;;3.22;2.03;;;9.50;94.00;;;;;;4961533;28;20517;-76
2021/11/02 16:39:15;;;;;;;3.13;1.83;;;9.50;94.00;;;;;;4964490;28;20043;-77
2021/11/02 16:41:54;;;;;;;3.78;1.60;;;9.50;94.00;;;;;;4959981;28;20080;-76
2021/11/02 16:44:33;;;;;;;3.20;1.77;;;9.50;94.00;;;;;;4968703;28;20062;-76
2021/11/02 16:47:06;;;;;;;3.90;2.58;;;9.50;94.00;;;;;;4964279;28;20146;-76
2021/11/02 16:49:34;;;;;;;;;;;9.50;94.00;;;;;;4970836;28;20058;-77
2021/11/02 16:52:26;;;;;;;3.50;2.13;;;9.40;94.00;;;;;;4958975;28;19926;-76
2021/11/02 16:55:05;;;;;;;3.75;2.08;;;9.40;94.00;;;;;;4958911;28;20114;-77
2021/11/02 16:57:32;;;;;;;3.40;1.70;;;9.30;94.00;;;;;;4965177;28;20050;-77
2021/11/02 17:00:04;;;;;;;3.05;1.85;;;9.30;94.00;;;;;;4947072;28;20102;-76
2021/11/02 17:02:39;;;;;;;4.38;2.22;;;9.30;94.00;;;;;;4940841;28;20910;-76
2021/11/02 17:05:15;;;;;;;3.03;1.80;;;9.30;94.00;;;;;;4938025;28;20700;-76
2021/11/02 17:07:53;;;;;;;2.80;1.52;;;9.30;94.00;;;;;;4953123;28;20136;-75
2021/11/02 17:10:24;;;;;;;3.13;1.90;;;9.30;94.30;;;;;;4955535;28;20098;-75
2021/11/02 17:12:53;;;;;;;2.40;1.48;;;9.30;94.00;;;;;;4962355;28;20043;-75
2021/11/02 17:15:26;;;;;;;2.70;1.65;;;9.30;94.00;;;;;;4960604;28;20215;-76
2021/11/02 17:17:54;;;;;;;1.98;1.20;;;9.20;94.00;;;;;;4960542;28;20118;-76
2021/11/02 17:20:22;;;;;;;1.85;0.90;;;9.20;94.00;;;;;;4961532;28;20054;-76
2021/11/02 17:22:50;;;;;;;3.72;1.42;;;9.20;94.00;;;;;;4960201;28;20038;-76
2021/11/02 17:25:19;;;;;;;2.22;1.17;;;9.20;94.00;;;;;;4958401;28;20058;-76
2021/11/02 17:27:48;;;;;;;4.30;1.30;;;9.10;94.00;;;;;;4956085;28;20105;-76
2021/11/02 17:30:21;;;;;;;2.25;1.25;;;9.20;94.00;;;;;;4947255;28;20042;-75
2021/11/02 17:32:49;;;;;;;1.83;1.00;;;9.20;94.00;;;;;;4957409;28;20047;-77
2021/11/02 17:35:17;;;;;;;3.85;1.13;;;9.10;93.90;;;;;;4959759;28;20063;-76
2021/11/02 17:37:47;;;;;;;1.90;1.00;;;9.10;93.90;;;;;;4960859;28;20063;-77
2021/11/02 17:40:15;;;;;;;1.77;1.17;;;9.00;93.90;;;;;;4947965;28;20046;-77
2021/11/02 17:42:50;;;;;;;2.60;1.17;;;9.00;93.90;;;;;;4960870;28;20066;-77
2021/11/02 17:45:17;;;;;;;1.77;1.02;;;9.00;93.90;;;;;;4950546;28;20043;-76
2021/11/02 17:47:50;;;;;;;2.42;1.23;;;8.90;94.00;;;;;;4952945;28;20197;-78
2021/11/02 17:50:19;;;;;;;3.05;1.20;;;8.80;94.00;;;;;;4958580;28;20047;-78
2021/11/02 17:52:47;;;;;;;4.22;0.80;;;8.80;94.00;;;;;;4954971;28;20043;-76
2021/11/02 17:55:16;;;;;;;3.10;1.15;;;8.80;94.10;;;;;;4937735;28;20102;-74
2021/11/02 17:57:48;;;;;;;2.15;1.20;;;8.80;94.10;;;;;;4954052;28;20082;-75
2021/11/02 18:00:21;;;;;;;1.65;0.90;;;8.80;94.10;;;;;;4958358;28;20777;-76
2021/11/02 18:02:51;;;;;;;1.55;0.93;;;8.80;94.10;;;;;;4957533;28;20051;-74
2021/11/02 18:05:27;;;;;;;2.58;1.20;;;8.70;94.10;;;;;;4957259;28;20046;-74
2021/11/02 18:07:55;;;;;;;2.13;1.08;;;8.80;94.10;;;;;;4938640;28;20094;-75
2021/11/02 18:10:25;;;;;;;2.63;1.13;;;8.70;94.10;;;;;;4958272;28;20058;-73
2021/11/02 18:12:55;;;;;;;4.55;1.30;;;8.70;94.10;;;;;;4959628;28;20098;-79
2021/11/02 18:15:23;;;;;;;2.08;1.10;;;8.70;94.10;;;;;;4951475;28;20090;-78
2021/11/02 18:17:52;;;;;;;2.15;0.85;;;8.70;94.00;;;;;;4946849;28;20043;-83
2021/11/02 18:20:22;;;;;;;2.17;1.20;;;8.70;94.00;;;;;;4962553;28;20047;-79
2021/11/02 18:22:52;;;;;;;1.92;1.10;;;8.70;94.00;;;;;;4959225;28;20043;-80
2021/11/02 18:25:21;;;;;;;2.83;1.33;;;8.80;94.10;;;;;;4960513;28;20050;-77
2021/11/02 18:27:51;;;;;;;2.00;1.00;;;8.80;94.10;;;;;;4948455;28;20035;-83
2021/11/02 18:30:19;;;;;;;1.60;0.80;;;8.80;94.10;;;;;;4962457;28;20046;-82
2021/11/02 18:32:47;;;;;;;2.28;1.17;;;8.80;94.10;;;;;;4962269;28;20552;-80
2021/11/02 18:35:15;;;;;;;3.22;1.10;;;8.80;94.00;;;;;;4934430;28;20050;-80
2021/11/02 18:37:44;;;;;;;2.05;0.88;;;8.80;94.00;;;;;;4962013;28;20075;-80